createdAt,value
2019-04-30T00:04:37.527Z,13.21
2019-04-30T00:09:36.231Z,13.02
2019-04-30T00:14:41.255Z,12.55
2019-04-30T00:19:42.918Z,12.45
2019-04-30T00:24:49.678Z,13.03
2019-04-30T00:29:49.439Z,12.38
2019-04-30T00:34:51.862Z,12.77
2019-04-30T00:39:55.587Z,12.78
2019-04-30T00:44:59.557Z,12.52
2019-04-30T00:50:02.095Z,13.00
2019-04-30T00:55:08.896Z,12.51
2019-04-30T01:00:10.853Z,12.90
2019-04-30T01:05:15.759Z,12.55
2019-04-30T01:10:19.578Z,12.56
2019-04-30T01:15:22.076Z,12.56
2019-04-30T01:20:31.108Z,12.45
2019-04-30T01:25:29.771Z,12.94
2019-04-30T01:30:31.953Z,12.78
2019-04-30T01:35:34.119Z,12.88
2019-04-30T01:40:38.390Z,12.64
2019-04-30T01:45:40.804Z,12.83
2019-04-30T01:50:42.985Z,12.83
2019-04-30T01:56:15.573Z,12.99
2019-04-30T02:01:19.931Z,13.04
2019-04-30T02:06:22.247Z,12.93
2019-04-30T02:11:24.286Z,12.73
2019-04-30T02:16:28.783Z,12.51
2019-04-30T02:21:33.211Z,12.37
2019-04-30T02:26:35.300Z,12.35
2019-04-30T02:31:40.599Z,12.60
2019-04-30T02:36:49.936Z,12.11
2019-04-30T02:41:52.848Z,12.34
2019-04-30T02:47:00.117Z,12.79
2019-04-30T02:52:03.331Z,12.42
2019-04-30T02:57:12.354Z,12.58
2019-04-30T03:02:14.250Z,12.27
2019-04-30T03:07:16.272Z,12.70
2019-04-30T03:12:21.382Z,12.22
2019-04-30T03:17:30.246Z,12.43
2019-04-30T03:22:40.022Z,12.54
2019-04-30T03:27:42.536Z,12.70
2019-04-30T03:32:50.773Z,12.08
2019-04-30T03:37:49.646Z,12.46
2019-04-30T03:42:51.827Z,12.32
2019-04-30T03:47:53.807Z,12.12
2019-04-30T03:52:55.790Z,12.66
2019-04-30T03:58:00.473Z,12.17
2019-04-30T04:03:02.632Z,12.11
2019-04-30T04:08:30.149Z,12.50
2019-04-30T04:13:33.152Z,12.55
2019-04-30T04:18:35.205Z,12.58
2019-04-30T04:23:39.906Z,12.69
2019-04-30T04:28:43.481Z,12.36
2019-04-30T04:33:44.950Z,12.59
2019-04-30T04:38:50.716Z,12.39
2019-04-30T04:43:55.345Z,12.35
2019-04-30T04:48:59.718Z,12.64
2019-04-30T04:54:03.220Z,12.68
2019-04-30T04:59:05.659Z,12.11
2019-04-30T05:04:11.474Z,12.52
2019-04-30T05:09:11.738Z,12.47
2019-04-30T05:14:18.598Z,12.47
2019-04-30T05:19:20.728Z,12.35
2019-04-30T05:24:22.870Z,12.79
2019-04-30T05:29:24.862Z,12.79
2019-04-30T05:34:28.709Z,12.36
2019-04-30T05:39:30.735Z,12.27
2019-04-30T05:44:32.681Z,12.59
2019-04-30T05:49:34.526Z,12.95
2019-04-30T05:54:39.044Z,12.64
2019-04-30T05:59:44.155Z,12.63
2019-04-30T06:04:48.870Z,13.00
2019-04-30T06:10:06.181Z,12.87
2019-04-30T06:15:39.106Z,12.90
2019-04-30T06:20:41.467Z,12.93
2019-04-30T06:25:56.417Z,13.08
2019-04-30T06:30:49.290Z,12.92
2019-04-30T06:35:52.207Z,13.03
2019-04-30T06:40:54.216Z,13.42
2019-04-30T06:45:56.279Z,13.64
2019-04-30T06:50:59.211Z,12.84
2019-04-30T06:56:01.350Z,12.92
2019-04-30T07:01:03.314Z,13.23
2019-04-30T07:06:05.791Z,12.83
2019-04-30T07:11:26.193Z,13.24
2019-04-30T07:16:30.407Z,13.19
2019-04-30T07:21:36.509Z,13.58
2019-04-30T07:26:38.952Z,13.91
2019-04-30T07:31:43.780Z,13.91
2019-04-30T07:36:51.002Z,13.44
2019-04-30T07:41:49.844Z,13.35
2019-04-30T07:46:52.065Z,13.54
2019-04-30T07:51:54.826Z,14.02
2019-04-30T07:57:01.220Z,13.35
2019-04-30T08:02:10.906Z,13.74
2019-04-30T08:07:07.062Z,13.59
2019-04-30T08:12:09.724Z,14.19
2019-04-30T08:17:12.626Z,13.99
2019-04-30T08:22:19.741Z,14.07
2019-04-30T08:27:21.967Z,14.27
2019-04-30T08:32:23.931Z,13.50
2019-04-30T08:37:25.853Z,14.23
2019-04-30T08:42:35.263Z,14.11
2019-04-30T08:47:39.302Z,14.09
2019-04-30T08:52:41.404Z,14.08
2019-04-30T08:57:43.423Z,13.89
2019-04-30T09:02:45.444Z,14.32
2019-04-30T09:07:48.647Z,14.28
2019-04-30T09:12:51.956Z,14.09
2019-04-30T09:18:03.079Z,14.15
2019-04-30T09:22:59.512Z,14.51
2019-04-30T09:28:04.405Z,14.41
2019-04-30T09:33:05.906Z,14.48
2019-04-30T09:38:09.188Z,14.37
2019-04-30T09:43:11.981Z,14.57
2019-04-30T09:48:13.974Z,14.76
2019-04-30T09:53:16.269Z,14.93
2019-04-30T09:58:21.165Z,15.11
2019-04-30T10:03:23.477Z,14.60
2019-04-30T10:08:26.596Z,14.61
2019-04-30T10:13:28.658Z,14.30
2019-04-30T10:18:30.698Z,14.70
2019-04-30T10:23:34.131Z,15.06
2019-04-30T10:28:39.784Z,14.80
2019-04-30T10:33:41.712Z,15.05
2019-04-30T10:38:45.055Z,15.05
2019-04-30T10:43:49.196Z,14.95
2019-04-30T10:48:51.277Z,15.06
2019-04-30T10:53:53.580Z,15.21
2019-04-30T10:58:55.557Z,15.24
2019-04-30T11:03:57.585Z,14.92
2019-04-30T11:08:59.569Z,14.61
2019-04-30T11:14:01.631Z,14.73
2019-04-30T11:19:04.003Z,15.25
2019-04-30T11:24:12.663Z,14.31
2019-04-30T11:29:19.181Z,15.20
2019-04-30T11:34:21.394Z,14.13
2019-04-30T11:39:23.449Z,15.21
2019-04-30T11:44:31.018Z,14.95
2019-04-30T11:49:29.247Z,15.21
2019-04-30T11:54:31.748Z,15.04
2019-04-30T11:59:33.747Z,14.95
2019-04-30T12:04:35.759Z,15.19
2019-04-30T12:09:54.781Z,15.09
2019-04-30T12:15:02.518Z,15.39
2019-04-30T12:20:04.256Z,15.42
2019-04-30T12:25:06.536Z,15.10
2019-04-30T12:30:09.894Z,15.08
2019-04-30T12:35:12.440Z,15.06
2019-04-30T12:40:26.641Z,14.78
2019-04-30T12:45:19.468Z,14.98
2019-04-30T12:50:39.199Z,15.30
2019-04-30T12:55:52.696Z,14.85
2019-04-30T13:00:54.834Z,14.93
2019-04-30T13:05:57.518Z,15.05
2019-04-30T13:11:02.088Z,15.43
2019-04-30T13:16:04.492Z,16.01
2019-04-30T13:21:09.415Z,15.73
2019-04-30T13:26:13.395Z,15.31
2019-04-30T13:31:19.366Z,15.45
2019-04-30T13:36:21.390Z,15.35
2019-04-30T13:41:50.979Z,15.54
2019-04-30T13:46:53.152Z,15.41
2019-04-30T13:51:55.145Z,15.23
2019-04-30T13:56:59.052Z,15.22
2019-04-30T14:02:01.214Z,15.12
2019-04-30T14:07:25.340Z,15.60
2019-04-30T14:12:28.702Z,15.59
2019-04-30T14:17:32.110Z,15.14
2019-04-30T14:22:33.988Z,15.49
2019-04-30T14:27:48.524Z,14.97
2019-04-30T14:32:39.968Z,14.37
2019-04-30T14:37:41.988Z,15.05
2019-04-30T14:42:51.070Z,15.28
2019-04-30T14:48:08.620Z,15.33
2019-04-30T14:53:35.951Z,15.20
2019-04-30T14:59:12.712Z,15.04
2019-04-30T15:04:14.821Z,15.79
2019-04-30T15:09:17.130Z,15.23
2019-04-30T15:14:19.258Z,15.05
2019-04-30T15:19:21.231Z,14.84
2019-04-30T15:24:29.321Z,15.10
2019-04-30T15:29:31.714Z,14.75
2019-04-30T15:34:33.649Z,14.90
2019-04-30T15:39:39.326Z,14.46
2019-04-30T15:44:45.336Z,14.15
2019-04-30T15:49:45.756Z,14.93
2019-04-30T15:54:49.070Z,14.88
2019-04-30T15:59:51.150Z,14.78
2019-04-30T16:05:12.779Z,14.61
2019-04-30T16:10:40.198Z,14.75
2019-04-30T16:15:45.029Z,14.48
2019-04-30T16:20:48.102Z,14.81
2019-04-30T16:25:51.029Z,14.71
2019-04-30T16:30:53.006Z,14.57
2019-04-30T16:35:55.362Z,14.36
2019-04-30T16:40:58.476Z,14.40
2019-04-30T16:46:01.203Z,14.34
2019-04-30T16:51:03.172Z,14.51
2019-04-30T16:56:05.280Z,14.40
2019-04-30T17:01:09.191Z,14.37
2019-04-30T17:06:15.729Z,14.36
2019-04-30T17:11:35.905Z,14.25
2019-04-30T17:16:39.132Z,14.22
2019-04-30T17:21:41.244Z,14.23
2019-04-30T17:26:43.396Z,13.92
2019-04-30T17:31:46.557Z,14.09
2019-04-30T17:36:49.621Z,13.90
2019-04-30T17:41:51.991Z,13.81
2019-04-30T17:46:55.856Z,13.49
2019-04-30T17:51:59.468Z,13.93
2019-04-30T17:57:01.492Z,13.82
2019-04-30T18:02:05.549Z,13.86
2019-04-30T18:07:09.942Z,13.29
2019-04-30T18:12:12.089Z,13.66
2019-04-30T18:17:14.023Z,13.29
2019-04-30T18:22:40.003Z,13.74
2019-04-30T18:27:49.519Z,13.70
2019-04-30T18:32:51.563Z,13.50
2019-04-30T18:37:53.500Z,13.24
2019-04-30T18:42:55.458Z,13.35
2019-04-30T18:47:59.540Z,13.57
2019-04-30T18:53:04.699Z,13.65
2019-04-30T18:58:08.690Z,13.56
2019-04-30T19:03:10.794Z,13.42
2019-04-30T19:08:26.207Z,13.33
2019-04-30T19:13:41.512Z,13.50
2019-04-30T19:18:56.283Z,13.15
2019-04-30T19:23:58.706Z,12.90
2019-04-30T19:29:00.732Z,13.28
2019-04-30T19:34:03.427Z,12.75
2019-04-30T19:39:08.675Z,13.02
2019-04-30T19:44:11.041Z,12.91
2019-04-30T19:49:13.152Z,12.95
2019-04-30T19:54:15.190Z,12.89
2019-04-30T19:59:19.251Z,13.14
2019-04-30T20:04:32.645Z,13.27
2019-04-30T20:09:25.369Z,13.03
2019-04-30T20:14:29.983Z,12.73
2019-04-30T20:19:33.146Z,13.13
2019-04-30T20:24:35.369Z,13.04
2019-04-30T20:29:37.230Z,12.72
2019-04-30T20:34:39.317Z,12.79
2019-04-30T20:40:08.701Z,13.01
2019-04-30T20:45:11.098Z,12.94
2019-04-30T20:50:13.271Z,13.01
2019-04-30T20:55:15.310Z,12.56
2019-04-30T21:00:17.320Z,12.56
2019-04-30T21:05:20.458Z,12.90
2019-04-30T21:10:22.437Z,12.45
2019-04-30T21:15:24.698Z,12.60
2019-04-30T21:20:28.868Z,12.85
2019-04-30T21:25:31.186Z,12.70
2019-04-30T21:30:33.311Z,12.72
2019-04-30T21:35:41.807Z,12.99
2019-04-30T21:40:45.664Z,12.91
2019-04-30T21:45:49.376Z,12.71
2019-04-30T21:50:53.251Z,12.64
2019-04-30T21:55:57.248Z,12.91
2019-04-30T22:01:21.235Z,12.42
2019-04-30T22:06:25.578Z,12.72
2019-04-30T22:11:29.604Z,12.72
2019-04-30T22:16:32.130Z,12.72
2019-04-30T22:21:34.213Z,12.50
2019-04-30T22:26:36.342Z,12.50
2019-04-30T22:31:39.601Z,12.38
2019-04-30T22:36:49.087Z,12.38
2019-04-30T22:42:01.384Z,12.29
2019-04-30T22:47:03.696Z,12.29
2019-04-30T22:52:05.718Z,12.32
2019-04-30T22:57:09.169Z,11.87
2019-04-30T23:02:22.487Z,12.24
2019-04-30T23:07:26.227Z,11.89
2019-04-30T23:12:28.253Z,11.89
2019-04-30T23:17:30.300Z,11.79
2019-04-30T23:22:34.290Z,11.77
2019-04-30T23:27:36.440Z,11.49
2019-04-30T23:32:38.380Z,11.69
2019-04-30T23:37:43.735Z,11.39
2019-04-30T23:42:45.771Z,11.23
2019-04-30T23:47:48.064Z,10.90
2019-04-30T23:52:50.122Z,10.72
2019-04-30T23:57:52.334Z,10.72
